sensor_id;sensor_type;location;lat;lon;timestamp;P1;durP1;ratioP1;P2;durP2;ratioP2
5880;SDS011;2966;52.598;10.928;2022-10-16T00:01:03;6.00;;;1.33;;
5880;SDS011;2966;52.598;10.928;2022-10-16T00:03:31;1.20;;;1.10;;
5880;SDS011;2966;52.598;10.928;2022-10-16T00:06:00;1.20;;;1.20;;
5880;SDS011;2966;52.598;10.928;2022-10-16T00:08:27;1.50;;;1.40;;
5880;SDS011;2966;52.598;10.928;2022-10-16T00:10:58;2.47;;;1.00;;
5880;SDS011;2966;52.598;10.928;2022-10-16T00:13:25;1.30;;;1.20;;
5880;SDS011;2966;52.598;10.928;2022-10-16T00:15:54;2.03;;;1.03;;
5880;SDS011;2966;52.598;10.928;2022-10-16T00:18:22;1.03;;;0.93;;
5880;SDS011;2966;52.598;10.928;2022-10-16T00:20:48;1.20;;;1.17;;
5880;SDS011;2966;52.598;10.928;2022-10-16T00:23:17;0.90;;;0.90;;
5880;SDS011;2966;52.598;10.928;2022-10-16T00:25:43;7.47;;;1.10;;
5880;SDS011;2966;52.598;10.928;2022-10-16T00:28:10;1.57;;;1.20;;
5880;SDS011;2966;52.598;10.928;2022-10-16T00:30:37;2.50;;;1.60;;
5880;SDS011;2966;52.598;10.928;2022-10-16T00:33:04;5.53;;;1.30;;
5880;SDS011;2966;52.598;10.928;2022-10-16T00:35:31;4.43;;;1.17;;
5880;SDS011;2966;52.598;10.928;2022-10-16T00:37:58;0.80;;;0.80;;
5880;SDS011;2966;52.598;10.928;2022-10-16T00:40:26;1.00;;;1.00;;
5880;SDS011;2966;52.598;10.928;2022-10-16T00:42:53;3.43;;;1.63;;
5880;SDS011;2966;52.598;10.928;2022-10-16T00:45:20;2.70;;;1.57;;
5880;SDS011;2966;52.598;10.928;2022-10-16T00:47:47;1.47;;;1.37;;
5880;SDS011;2966;52.598;10.928;2022-10-16T00:50:16;3.97;;;3.00;;
5880;SDS011;2966;52.598;10.928;2022-10-16T00:52:49;3.40;;;2.73;;
5880;SDS011;2966;52.598;10.928;2022-10-16T00:55:18;2.87;;;2.10;;
5880;SDS011;2966;52.598;10.928;2022-10-16T00:57:46;2.60;;;2.17;;
5880;SDS011;2966;52.598;10.928;2022-10-16T01:00:16;6.17;;;2.00;;
5880;SDS011;2966;52.598;10.928;2022-10-16T01:02:51;2.87;;;2.57;;
5880;SDS011;2966;52.598;10.928;2022-10-16T01:05:18;6.93;;;3.00;;
5880;SDS011;2966;52.598;10.928;2022-10-16T01:07:47;4.23;;;2.73;;
5880;SDS011;2966;52.598;10.928;2022-10-16T01:10:26;6.43;;;2.07;;
5880;SDS011;2966;52.598;10.928;2022-10-16T01:13:00;2.70;;;2.43;;
5880;SDS011;2966;52.598;10.928;2022-10-16T01:15:34;3.77;;;2.00;;
5880;SDS011;2966;52.598;10.928;2022-10-16T01:18:04;5.10;;;2.07;;
5880;SDS011;2966;52.598;10.928;2022-10-16T01:20:37;1.63;;;1.50;;
5880;SDS011;2966;52.598;10.928;2022-10-16T01:23:10;4.40;;;1.93;;
5880;SDS011;2966;52.598;10.928;2022-10-16T01:28:41;1.67;;;1.33;;
5880;SDS011;2966;52.598;10.928;2022-10-16T01:31:12;2.50;;;1.50;;
5880;SDS011;2966;52.598;10.928;2022-10-16T01:33:45;2.70;;;1.17;;
5880;SDS011;2966;52.598;10.928;2022-10-16T01:36:18;2.13;;;1.50;;
5880;SDS011;2966;52.598;10.928;2022-10-16T01:38:49;1.97;;;1.20;;
5880;SDS011;2966;52.598;10.928;2022-10-16T01:41:21;3.47;;;1.30;;
5880;SDS011;2966;52.598;10.928;2022-10-16T01:43:56;2.77;;;1.87;;
5880;SDS011;2966;52.598;10.928;2022-10-16T01:46:27;1.37;;;1.27;;
5880;SDS011;2966;52.598;10.928;2022-10-16T01:48:57;1.77;;;1.30;;
5880;SDS011;2966;52.598;10.928;2022-10-16T01:51:26;4.00;;;1.60;;
5880;SDS011;2966;52.598;10.928;2022-10-16T01:53:55;1.57;;;1.40;;
5880;SDS011;2966;52.598;10.928;2022-10-16T01:56:25;0.97;;;0.90;;
5880;SDS011;2966;52.598;10.928;2022-10-16T01:58:56;3.13;;;1.43;;
5880;SDS011;2966;52.598;10.928;2022-10-16T02:01:27;1.80;;;1.33;;
5880;SDS011;2966;52.598;10.928;2022-10-16T02:03:58;1.70;;;1.13;;
5880;SDS011;2966;52.598;10.928;2022-10-16T02:06:27;10.03;;;1.63;;
5880;SDS011;2966;52.598;10.928;2022-10-16T02:08:54;1.97;;;1.60;;
5880;SDS011;2966;52.598;10.928;2022-10-16T02:11:21;2.83;;;1.57;;
5880;SDS011;2966;52.598;10.928;2022-10-16T02:13:50;5.30;;;1.70;;
5880;SDS011;2966;52.598;10.928;2022-10-16T02:16:23;1.83;;;1.40;;
5880;SDS011;2966;52.598;10.928;2022-10-16T02:18:58;1.83;;;1.40;;
5880;SDS011;2966;52.598;10.928;2022-10-16T02:21:26;1.07;;;1.00;;
5880;SDS011;2966;52.598;10.928;2022-10-16T02:23:57;2.80;;;1.90;;
5880;SDS011;2966;52.598;10.928;2022-10-16T02:26:28;1.30;;;1.20;;
5880;SDS011;2966;52.598;10.928;2022-10-16T02:29:00;2.00;;;1.40;;
5880;SDS011;2966;52.598;10.928;2022-10-16T02:31:34;1.60;;;1.40;;
5880;SDS011;2966;52.598;10.928;2022-10-16T02:34:04;2.20;;;1.30;;
5880;SDS011;2966;52.598;10.928;2022-10-16T02:36:32;4.30;;;1.30;;
5880;SDS011;2966;52.598;10.928;2022-10-16T02:39:01;1.77;;;1.23;;
5880;SDS011;2966;52.598;10.928;2022-10-16T02:41:29;2.20;;;1.57;;
5880;SDS011;2966;52.598;10.928;2022-10-16T02:43:57;1.53;;;1.40;;
5880;SDS011;2966;52.598;10.928;2022-10-16T02:46:24;2.10;;;1.90;;
5880;SDS011;2966;52.598;10.928;2022-10-16T02:48:52;2.10;;;1.50;;
5880;SDS011;2966;52.598;10.928;2022-10-16T02:51:19;1.67;;;1.57;;
5880;SDS011;2966;52.598;10.928;2022-10-16T02:53:46;3.30;;;2.07;;
5880;SDS011;2966;52.598;10.928;2022-10-16T02:56:15;1.73;;;1.63;;
5880;SDS011;2966;52.598;10.928;2022-10-16T02:58:42;3.00;;;1.40;;
5880;SDS011;2966;52.598;10.928;2022-10-16T03:01:09;2.37;;;2.17;;
5880;SDS011;2966;52.598;10.928;2022-10-16T03:03:37;7.67;;;2.80;;
5880;SDS011;2966;52.598;10.928;2022-10-16T03:06:05;2.60;;;2.03;;
5880;SDS011;2966;52.598;10.928;2022-10-16T03:08:32;1.50;;;1.40;;
5880;SDS011;2966;52.598;10.928;2022-10-16T03:11:02;6.30;;;2.50;;
5880;SDS011;2966;52.598;10.928;2022-10-16T03:13:29;2.53;;;1.90;;
5880;SDS011;2966;52.598;10.928;2022-10-16T03:15:55;1.90;;;1.70;;
5880;SDS011;2966;52.598;10.928;2022-10-16T03:18:22;1.83;;;1.73;;
5880;SDS011;2966;52.598;10.928;2022-10-16T03:20:49;2.00;;;1.90;;
5880;SDS011;2966;52.598;10.928;2022-10-16T03:23:17;2.93;;;2.20;;
5880;SDS011;2966;52.598;10.928;2022-10-16T03:25:44;2.77;;;1.87;;
5880;SDS011;2966;52.598;10.928;2022-10-16T03:28:11;2.57;;;2.03;;
5880;SDS011;2966;52.598;10.928;2022-10-16T03:30:38;3.30;;;2.60;;
5880;SDS011;2966;52.598;10.928;2022-10-16T03:33:05;2.13;;;1.93;;
5880;SDS011;2966;52.598;10.928;2022-10-16T03:35:32;2.90;;;2.43;;
5880;SDS011;2966;52.598;10.928;2022-10-16T03:37:59;4.60;;;2.10;;
5880;SDS011;2966;52.598;10.928;2022-10-16T03:40:27;4.00;;;2.20;;
5880;SDS011;2966;52.598;10.928;2022-10-16T03:42:56;6.30;;;2.40;;
5880;SDS011;2966;52.598;10.928;2022-10-16T03:45:23;2.60;;;2.40;;
5880;SDS011;2966;52.598;10.928;2022-10-16T03:47:51;2.50;;;2.30;;
5880;SDS011;2966;52.598;10.928;2022-10-16T03:50:18;4.60;;;2.30;;
5880;SDS011;2966;52.598;10.928;2022-10-16T03:52:44;2.70;;;2.27;;
5880;SDS011;2966;52.598;10.928;2022-10-16T03:55:11;2.60;;;2.40;;
5880;SDS011;2966;52.598;10.928;2022-10-16T03:57:39;2.13;;;1.93;;
5880;SDS011;2966;52.598;10.928;2022-10-16T04:00:06;3.17;;;2.50;;
5880;SDS011;2966;52.598;10.928;2022-10-16T04:02:34;2.83;;;2.63;;
5880;SDS011;2966;52.598;10.928;2022-10-16T04:05:01;5.33;;;2.40;;
5880;SDS011;2966;52.598;10.928;2022-10-16T04:07:29;3.27;;;2.10;;
5880;SDS011;2966;52.598;10.928;2022-10-16T04:09:55;3.20;;;2.33;;
5880;SDS011;2966;52.598;10.928;2022-10-16T04:12:23;1.67;;;1.47;;
5880;SDS011;2966;52.598;10.928;2022-10-16T04:14:52;2.80;;;2.00;;
5880;SDS011;2966;52.598;10.928;2022-10-16T04:17:18;3.80;;;2.33;;
5880;SDS011;2966;52.598;10.928;2022-10-16T04:19:45;5.40;;;2.80;;
5880;SDS011;2966;52.598;10.928;2022-10-16T04:22:12;2.87;;;2.30;;
5880;SDS011;2966;52.598;10.928;2022-10-16T04:24:39;2.37;;;2.17;;
5880;SDS011;2966;52.598;10.928;2022-10-16T04:27:06;3.90;;;2.20;;
5880;SDS011;2966;52.598;10.928;2022-10-16T04:29:33;2.97;;;2.63;;
5880;SDS011;2966;52.598;10.928;2022-10-16T04:32:01;5.07;;;2.30;;
5880;SDS011;2966;52.598;10.928;2022-10-16T04:34:28;3.77;;;3.20;;
5880;SDS011;2966;52.598;10.928;2022-10-16T04:36:55;3.57;;;2.53;;
5880;SDS011;2966;52.598;10.928;2022-10-16T04:39:22;5.60;;;2.20;;
5880;SDS011;2966;52.598;10.928;2022-10-16T04:41:49;3.00;;;2.70;;
5880;SDS011;2966;52.598;10.928;2022-10-16T04:44:15;3.60;;;1.93;;
5880;SDS011;2966;52.598;10.928;2022-10-16T04:46:42;2.30;;;2.10;;
5880;SDS011;2966;52.598;10.928;2022-10-16T04:49:11;2.10;;;2.00;;
5880;SDS011;2966;52.598;10.928;2022-10-16T04:51:38;2.33;;;2.13;;
5880;SDS011;2966;52.598;10.928;2022-10-16T04:54:04;4.60;;;3.20;;
5880;SDS011;2966;52.598;10.928;2022-10-16T04:56:31;3.27;;;2.27;;
5880;SDS011;2966;52.598;10.928;2022-10-16T04:59:05;2.27;;;2.07;;
5880;SDS011;2966;52.598;10.928;2022-10-16T05:01:31;2.63;;;2.43;;
5880;SDS011;2966;52.598;10.928;2022-10-16T05:03:58;3.00;;;2.70;;
5880;SDS011;2966;52.598;10.928;2022-10-16T05:06:26;3.00;;;2.73;;
5880;SDS011;2966;52.598;10.928;2022-10-16T05:08:53;4.73;;;2.10;;
5880;SDS011;2966;52.598;10.928;2022-10-16T05:11:20;2.80;;;2.60;;
5880;SDS011;2966;52.598;10.928;2022-10-16T05:13:47;3.10;;;2.33;;
5880;SDS011;2966;52.598;10.928;2022-10-16T05:16:14;4.33;;;2.50;;
5880;SDS011;2966;52.598;10.928;2022-10-16T05:18:41;2.80;;;2.43;;
5880;SDS011;2966;52.598;10.928;2022-10-16T05:21:08;5.83;;;3.00;;
5880;SDS011;2966;52.598;10.928;2022-10-16T05:23:36;8.27;;;2.50;;
5880;SDS011;2966;52.598;10.928;2022-10-16T05:26:03;4.70;;;3.10;;
5880;SDS011;2966;52.598;10.928;2022-10-16T05:28:31;2.80;;;2.60;;
5880;SDS011;2966;52.598;10.928;2022-10-16T05:30:58;3.40;;;3.10;;
5880;SDS011;2966;52.598;10.928;2022-10-16T05:33:25;6.00;;;2.80;;
5880;SDS011;2966;52.598;10.928;2022-10-16T05:35:52;3.10;;;2.80;;
5880;SDS011;2966;52.598;10.928;2022-10-16T05:38:19;3.57;;;3.27;;
5880;SDS011;2966;52.598;10.928;2022-10-16T05:40:51;3.50;;;3.17;;
5880;SDS011;2966;52.598;10.928;2022-10-16T05:43:21;6.03;;;3.43;;
5880;SDS011;2966;52.598;10.928;2022-10-16T05:45:55;3.83;;;3.47;;
5880;SDS011;2966;52.598;10.928;2022-10-16T05:48:22;3.10;;;2.67;;
5880;SDS011;2966;52.598;10.928;2022-10-16T05:50:55;4.20;;;3.20;;
5880;SDS011;2966;52.598;10.928;2022-10-16T05:53:23;5.07;;;3.80;;
5880;SDS011;2966;52.598;10.928;2022-10-16T05:55:54;4.07;;;3.60;;
5880;SDS011;2966;52.598;10.928;2022-10-16T05:58:22;4.60;;;3.67;;
5880;SDS011;2966;52.598;10.928;2022-10-16T06:00:52;6.20;;;3.10;;
5880;SDS011;2966;52.598;10.928;2022-10-16T06:03:20;3.37;;;3.07;;
5880;SDS011;2966;52.598;10.928;2022-10-16T06:05:47;2.97;;;2.77;;
5880;SDS011;2966;52.598;10.928;2022-10-16T06:08:14;4.13;;;3.10;;
5880;SDS011;2966;52.598;10.928;2022-10-16T06:10:41;3.40;;;3.10;;
5880;SDS011;2966;52.598;10.928;2022-10-16T06:13:10;3.50;;;3.20;;
5880;SDS011;2966;52.598;10.928;2022-10-16T06:15:37;5.10;;;2.93;;
5880;SDS011;2966;52.598;10.928;2022-10-16T06:18:04;5.20;;;3.50;;
5880;SDS011;2966;52.598;10.928;2022-10-16T06:20:31;3.43;;;3.23;;
5880;SDS011;2966;52.598;10.928;2022-10-16T06:22:57;5.33;;;4.63;;
5880;SDS011;2966;52.598;10.928;2022-10-16T06:25:24;3.67;;;3.27;;
5880;SDS011;2966;52.598;10.928;2022-10-16T06:27:51;5.23;;;2.90;;
5880;SDS011;2966;52.598;10.928;2022-10-16T06:30:19;4.83;;;3.23;;
5880;SDS011;2966;52.598;10.928;2022-10-16T06:32:46;5.37;;;4.50;;
5880;SDS011;2966;52.598;10.928;2022-10-16T06:35:13;4.40;;;3.73;;
5880;SDS011;2966;52.598;10.928;2022-10-16T06:37:40;3.97;;;2.83;;
5880;SDS011;2966;52.598;10.928;2022-10-16T06:40:10;2.60;;;2.37;;
5880;SDS011;2966;52.598;10.928;2022-10-16T06:42:39;4.07;;;3.13;;
5880;SDS011;2966;52.598;10.928;2022-10-16T06:45:06;4.67;;;3.80;;
5880;SDS011;2966;52.598;10.928;2022-10-16T06:47:35;4.43;;;2.83;;
5880;SDS011;2966;52.598;10.928;2022-10-16T06:50:03;3.90;;;3.50;;
5880;SDS011;2966;52.598;10.928;2022-10-16T06:52:31;6.87;;;3.93;;
5880;SDS011;2966;52.598;10.928;2022-10-16T06:54:59;8.53;;;4.20;;
5880;SDS011;2966;52.598;10.928;2022-10-16T06:57:27;5.37;;;3.77;;
5880;SDS011;2966;52.598;10.928;2022-10-16T06:59:54;3.80;;;3.33;;
5880;SDS011;2966;52.598;10.928;2022-10-16T07:02:21;4.00;;;3.70;;
5880;SDS011;2966;52.598;10.928;2022-10-16T07:04:49;3.57;;;3.27;;
5880;SDS011;2966;52.598;10.928;2022-10-16T07:07:16;4.83;;;3.53;;
5880;SDS011;2966;52.598;10.928;2022-10-16T07:09:43;10.40;;;4.37;;
5880;SDS011;2966;52.598;10.928;2022-10-16T07:12:10;5.00;;;4.60;;
5880;SDS011;2966;52.598;10.928;2022-10-16T07:14:36;4.03;;;3.63;;
5880;SDS011;2966;52.598;10.928;2022-10-16T07:17:03;6.27;;;2.90;;
5880;SDS011;2966;52.598;10.928;2022-10-16T07:19:30;5.10;;;3.67;;
5880;SDS011;2966;52.598;10.928;2022-10-16T07:21:58;3.80;;;3.47;;
5880;SDS011;2966;52.598;10.928;2022-10-16T07:24:25;3.87;;;3.03;;
5880;SDS011;2966;52.598;10.928;2022-10-16T07:26:52;4.60;;;3.10;;
5880;SDS011;2966;52.598;10.928;2022-10-16T07:29:19;6.90;;;3.50;;
5880;SDS011;2966;52.598;10.928;2022-10-16T07:31:47;4.17;;;3.80;;
5880;SDS011;2966;52.598;10.928;2022-10-16T07:34:15;3.60;;;3.30;;
5880;SDS011;2966;52.598;10.928;2022-10-16T07:36:43;3.27;;;2.77;;
5880;SDS011;2966;52.598;10.928;2022-10-16T07:39:15;4.03;;;3.73;;
5880;SDS011;2966;52.598;10.928;2022-10-16T07:41:42;3.53;;;3.23;;
5880;SDS011;2966;52.598;10.928;2022-10-16T07:44:09;2.90;;;2.70;;
5880;SDS011;2966;52.598;10.928;2022-10-16T07:46:36;5.43;;;2.83;;
5880;SDS011;2966;52.598;10.928;2022-10-16T07:49:03;5.37;;;3.93;;
5880;SDS011;2966;52.598;10.928;2022-10-16T07:51:30;2.90;;;2.60;;
5880;SDS011;2966;52.598;10.928;2022-10-16T07:53:56;5.53;;;3.73;;
5880;SDS011;2966;52.598;10.928;2022-10-16T07:56:25;3.40;;;3.10;;
5880;SDS011;2966;52.598;10.928;2022-10-16T07:58:52;3.40;;;3.10;;
5880;SDS011;2966;52.598;10.928;2022-10-16T08:01:19;3.43;;;3.13;;
5880;SDS011;2966;52.598;10.928;2022-10-16T08:03:46;3.20;;;2.77;;
5880;SDS011;2966;52.598;10.928;2022-10-16T08:06:14;3.03;;;2.73;;
5880;SDS011;2966;52.598;10.928;2022-10-16T08:08:42;5.43;;;2.13;;
5880;SDS011;2966;52.598;10.928;2022-10-16T08:11:09;2.43;;;2.27;;
5880;SDS011;2966;52.598;10.928;2022-10-16T08:13:38;2.63;;;2.43;;
5880;SDS011;2966;52.598;10.928;2022-10-16T08:16:04;1.93;;;1.83;;
5880;SDS011;2966;52.598;10.928;2022-10-16T08:18:33;2.23;;;2.13;;
5880;SDS011;2966;52.598;10.928;2022-10-16T08:21:01;2.70;;;2.10;;
5880;SDS011;2966;52.598;10.928;2022-10-16T08:23:28;2.30;;;2.10;;
5880;SDS011;2966;52.598;10.928;2022-10-16T08:25:55;8.03;;;1.90;;
5880;SDS011;2966;52.598;10.928;2022-10-16T08:28:28;2.87;;;2.03;;
5880;SDS011;2966;52.598;10.928;2022-10-16T08:30:56;5.33;;;1.70;;
5880;SDS011;2966;52.598;10.928;2022-10-16T08:33:30;2.33;;;1.90;;
5880;SDS011;2966;52.598;10.928;2022-10-16T08:35:57;2.23;;;2.13;;
5880;SDS011;2966;52.598;10.928;2022-10-16T08:38:23;2.50;;;2.30;;
5880;SDS011;2966;52.598;10.928;2022-10-16T08:40:50;2.20;;;2.07;;
5880;SDS011;2966;52.598;10.928;2022-10-16T08:43:21;3.37;;;2.33;;
5880;SDS011;2966;52.598;10.928;2022-10-16T08:46:11;2.33;;;1.57;;
5880;SDS011;2966;52.598;10.928;2022-10-16T08:48:46;2.20;;;1.93;;
5880;SDS011;2966;52.598;10.928;2022-10-16T08:51:18;2.77;;;2.57;;
5880;SDS011;2966;52.598;10.928;2022-10-16T08:53:49;1.60;;;1.50;;
5880;SDS011;2966;52.598;10.928;2022-10-16T08:56:20;1.60;;;1.50;;
5880;SDS011;2966;52.598;10.928;2022-10-16T08:58:47;1.93;;;1.67;;
5880;SDS011;2966;52.598;10.928;2022-10-16T09:01:16;1.67;;;1.57;;
5880;SDS011;2966;52.598;10.928;2022-10-16T09:04:01;1.77;;;1.67;;
5880;SDS011;2966;52.598;10.928;2022-10-16T09:06:53;1.63;;;1.40;;
5880;SDS011;2966;52.598;10.928;2022-10-16T09:09:30;2.40;;;1.73;;
5880;SDS011;2966;52.598;10.928;2022-10-16T09:12:18;1.60;;;1.50;;
5880;SDS011;2966;52.598;10.928;2022-10-16T09:14:55;2.47;;;1.63;;
5880;SDS011;2966;52.598;10.928;2022-10-16T09:17:32;1.77;;;1.67;;
5880;SDS011;2966;52.598;10.928;2022-10-16T09:20:12;1.43;;;1.30;;
5880;SDS011;2966;52.598;10.928;2022-10-16T09:22:45;2.50;;;1.20;;
5880;SDS011;2966;52.598;10.928;2022-10-16T09:25:13;1.10;;;1.10;;
5880;SDS011;2966;52.598;10.928;2022-10-16T09:27:42;2.50;;;2.23;;
5880;SDS011;2966;52.598;10.928;2022-10-16T09:30:12;1.43;;;1.33;;
5880;SDS011;2966;52.598;10.928;2022-10-16T09:32:42;1.27;;;1.20;;
5880;SDS011;2966;52.598;10.928;2022-10-16T09:35:11;2.77;;;1.27;;
5880;SDS011;2966;52.598;10.928;2022-10-16T09:37:41;0.80;;;0.80;;
5880;SDS011;2966;52.598;10.928;2022-10-16T09:40:13;1.30;;;1.20;;
5880;SDS011;2966;52.598;10.928;2022-10-16T09:42:51;1.57;;;0.87;;
5880;SDS011;2966;52.598;10.928;2022-10-16T09:45:29;1.50;;;1.10;;
5880;SDS011;2966;52.598;10.928;2022-10-16T09:47:57;4.73;;;1.30;;
5880;SDS011;2966;52.598;10.928;2022-10-16T09:50:28;2.67;;;2.47;;
5880;SDS011;2966;52.598;10.928;2022-10-16T09:53:04;2.07;;;1.97;;
5880;SDS011;2966;52.598;10.928;2022-10-16T09:55:34;1.10;;;1.00;;
5880;SDS011;2966;52.598;10.928;2022-10-16T09:58:01;1.37;;;1.27;;
5880;SDS011;2966;52.598;10.928;2022-10-16T10:00:28;1.43;;;1.30;;
5880;SDS011;2966;52.598;10.928;2022-10-16T10:02:55;2.40;;;1.67;;
5880;SDS011;2966;52.598;10.928;2022-10-16T10:05:24;1.20;;;1.10;;
5880;SDS011;2966;52.598;10.928;2022-10-16T10:07:54;1.33;;;1.20;;
5880;SDS011;2966;52.598;10.928;2022-10-16T10:10:26;1.27;;;0.80;;
5880;SDS011;2966;52.598;10.928;2022-10-16T10:12:55;2.60;;;0.80;;
5880;SDS011;2966;52.598;10.928;2022-10-16T10:15:22;1.03;;;0.97;;
5880;SDS011;2966;52.598;10.928;2022-10-16T10:17:52;0.73;;;0.73;;
5880;SDS011;2966;52.598;10.928;2022-10-16T10:20:25;1.43;;;1.07;;
5880;SDS011;2966;52.598;10.928;2022-10-16T10:22:53;1.00;;;0.70;;
5880;SDS011;2966;52.598;10.928;2022-10-16T10:25:33;0.90;;;0.90;;
5880;SDS011;2966;52.598;10.928;2022-10-16T10:28:21;0.97;;;0.73;;
5880;SDS011;2966;52.598;10.928;2022-10-16T10:31:06;3.27;;;1.20;;
5880;SDS011;2966;52.598;10.928;2022-10-16T10:33:41;0.80;;;0.80;;
5880;SDS011;2966;52.598;10.928;2022-10-16T10:36:16;3.50;;;1.80;;
5880;SDS011;2966;52.598;10.928;2022-10-16T10:38:55;1.33;;;1.13;;
5880;SDS011;2966;52.598;10.928;2022-10-16T10:41:29;1.10;;;1.10;;
5880;SDS011;2966;52.598;10.928;2022-10-16T10:44:21;1.33;;;1.10;;
5880;SDS011;2966;52.598;10.928;2022-10-16T10:46:57;1.00;;;0.90;;
5880;SDS011;2966;52.598;10.928;2022-10-16T10:49:35;0.87;;;0.80;;
5880;SDS011;2966;52.598;10.928;2022-10-16T10:52:19;1.13;;;1.10;;
5880;SDS011;2966;52.598;10.928;2022-10-16T10:55:02;1.60;;;0.90;;
5880;SDS011;2966;52.598;10.928;2022-10-16T10:57:37;0.60;;;0.60;;
5880;SDS011;2966;52.598;10.928;2022-10-16T11:00:15;1.07;;;0.70;;
5880;SDS011;2966;52.598;10.928;2022-10-16T11:02:48;0.87;;;0.87;;
5880;SDS011;2966;52.598;10.928;2022-10-16T11:05:33;0.93;;;0.70;;
5880;SDS011;2966;52.598;10.928;2022-10-16T11:08:09;0.60;;;0.60;;
5880;SDS011;2966;52.598;10.928;2022-10-16T11:10:46;2.13;;;0.77;;
5880;SDS011;2966;52.598;10.928;2022-10-16T11:16:08;2.20;;;0.70;;
5880;SDS011;2966;52.598;10.928;2022-10-16T11:18:46;0.87;;;0.60;;
5880;SDS011;2966;52.598;10.928;2022-10-16T11:21:18;6.73;;;0.97;;
5880;SDS011;2966;52.598;10.928;2022-10-16T11:23:50;0.80;;;0.80;;
5880;SDS011;2966;52.598;10.928;2022-10-16T11:26:23;1.97;;;0.67;;
5880;SDS011;2966;52.598;10.928;2022-10-16T11:28:53;1.37;;;0.70;;
5880;SDS011;2966;52.598;10.928;2022-10-16T11:31:23;2.20;;;1.13;;
5880;SDS011;2966;52.598;10.928;2022-10-16T11:33:57;1.03;;;0.80;;
5880;SDS011;2966;52.598;10.928;2022-10-16T11:36:31;1.10;;;1.07;;
5880;SDS011;2966;52.598;10.928;2022-10-16T11:39:04;2.47;;;1.83;;
5880;SDS011;2966;52.598;10.928;2022-10-16T11:41:42;0.97;;;0.97;;
5880;SDS011;2966;52.598;10.928;2022-10-16T11:44:16;1.20;;;1.10;;
5880;SDS011;2966;52.598;10.928;2022-10-16T11:46:58;0.90;;;0.90;;
5880;SDS011;2966;52.598;10.928;2022-10-16T11:49:31;2.60;;;0.93;;
5880;SDS011;2966;52.598;10.928;2022-10-16T11:52:01;1.10;;;1.00;;
5880;SDS011;2966;52.598;10.928;2022-10-16T11:54:36;2.20;;;0.67;;
5880;SDS011;2966;52.598;10.928;2022-10-16T11:57:11;1.80;;;1.00;;
5880;SDS011;2966;52.598;10.928;2022-10-16T11:59:42;0.87;;;0.87;;
5880;SDS011;2966;52.598;10.928;2022-10-16T12:02:23;0.90;;;0.60;;
5880;SDS011;2966;52.598;10.928;2022-10-16T12:05:23;0.70;;;0.57;;
5880;SDS011;2966;52.598;10.928;2022-10-16T12:07:59;1.40;;;0.80;;
5880;SDS011;2966;52.598;10.928;2022-10-16T12:10:34;1.87;;;0.67;;
5880;SDS011;2966;52.598;10.928;2022-10-16T12:13:02;1.70;;;0.77;;
5880;SDS011;2966;52.598;10.928;2022-10-16T12:15:31;1.07;;;0.90;;
5880;SDS011;2966;52.598;10.928;2022-10-16T12:17:59;1.90;;;0.60;;
5880;SDS011;2966;52.598;10.928;2022-10-16T12:20:27;1.97;;;1.10;;
5880;SDS011;2966;52.598;10.928;2022-10-16T12:23:02;1.10;;;0.97;;
5880;SDS011;2966;52.598;10.928;2022-10-16T12:25:31;0.80;;;0.77;;
5880;SDS011;2966;52.598;10.928;2022-10-16T12:28:05;3.20;;;0.90;;
5880;SDS011;2966;52.598;10.928;2022-10-16T12:30:33;1.90;;;0.50;;
5880;SDS011;2966;52.598;10.928;2022-10-16T12:33:03;1.07;;;0.93;;
5880;SDS011;2966;52.598;10.928;2022-10-16T12:35:32;1.83;;;0.80;;
5880;SDS011;2966;52.598;10.928;2022-10-16T12:38:06;0.57;;;0.57;;
5880;SDS011;2966;52.598;10.928;2022-10-16T12:40:35;5.47;;;0.90;;
5880;SDS011;2966;52.598;10.928;2022-10-16T12:43:24;3.53;;;0.67;;
5880;SDS011;2966;52.598;10.928;2022-10-16T12:46:03;2.30;;;0.70;;
5880;SDS011;2966;52.598;10.928;2022-10-16T12:48:32;1.53;;;1.07;;
5880;SDS011;2966;52.598;10.928;2022-10-16T12:51:09;1.77;;;0.83;;
5880;SDS011;2966;52.598;10.928;2022-10-16T12:53:36;2.60;;;1.00;;
5880;SDS011;2966;52.598;10.928;2022-10-16T12:56:09;3.03;;;2.00;;
5880;SDS011;2966;52.598;10.928;2022-10-16T12:58:51;1.83;;;1.17;;
5880;SDS011;2966;52.598;10.928;2022-10-16T13:01:34;1.97;;;1.60;;
5880;SDS011;2966;52.598;10.928;2022-10-16T13:07:15;1.37;;;1.17;;
5880;SDS011;2966;52.598;10.928;2022-10-16T13:09:55;2.03;;;1.50;;
5880;SDS011;2966;52.598;10.928;2022-10-16T13:12:37;1.27;;;0.93;;
5880;SDS011;2966;52.598;10.928;2022-10-16T13:15:22;0.90;;;0.60;;
5880;SDS011;2966;52.598;10.928;2022-10-16T13:17:57;0.80;;;0.80;;
5880;SDS011;2966;52.598;10.928;2022-10-16T13:20:30;5.00;;;1.00;;
5880;SDS011;2966;52.598;10.928;2022-10-16T13:23:13;0.67;;;0.67;;
5880;SDS011;2966;52.598;10.928;2022-10-16T13:25:46;3.03;;;0.90;;
5880;SDS011;2966;52.598;10.928;2022-10-16T13:28:26;1.90;;;0.87;;
5880;SDS011;2966;52.598;10.928;2022-10-16T13:30:57;0.73;;;0.73;;
5880;SDS011;2966;52.598;10.928;2022-10-16T13:33:27;2.80;;;0.93;;
5880;SDS011;2966;52.598;10.928;2022-10-16T13:35:59;1.07;;;0.80;;
5880;SDS011;2966;52.598;10.928;2022-10-16T13:38:26;2.20;;;1.17;;
5880;SDS011;2966;52.598;10.928;2022-10-16T13:40:57;7.53;;;0.87;;
5880;SDS011;2966;52.598;10.928;2022-10-16T13:43:27;0.90;;;0.60;;
5880;SDS011;2966;52.598;10.928;2022-10-16T13:46:01;0.67;;;0.67;;
5880;SDS011;2966;52.598;10.928;2022-10-16T13:48:30;0.87;;;0.87;;
5880;SDS011;2966;52.598;10.928;2022-10-16T13:51:02;1.47;;;0.90;;
5880;SDS011;2966;52.598;10.928;2022-10-16T13:53:32;2.13;;;1.00;;
5880;SDS011;2966;52.598;10.928;2022-10-16T13:56:01;2.50;;;0.90;;
5880;SDS011;2966;52.598;10.928;2022-10-16T13:58:30;1.60;;;0.90;;
5880;SDS011;2966;52.598;10.928;2022-10-16T14:00:58;0.60;;;0.57;;
5880;SDS011;2966;52.598;10.928;2022-10-16T14:03:27;0.70;;;0.70;;
5880;SDS011;2966;52.598;10.928;2022-10-16T14:05:56;2.23;;;0.87;;
5880;SDS011;2966;52.598;10.928;2022-10-16T14:08:25;1.80;;;1.00;;
5880;SDS011;2966;52.598;10.928;2022-10-16T14:10:55;0.60;;;0.60;;
5880;SDS011;2966;52.598;10.928;2022-10-16T14:13:29;0.80;;;0.50;;
5880;SDS011;2966;52.598;10.928;2022-10-16T14:15:59;2.20;;;0.90;;
5880;SDS011;2966;52.598;10.928;2022-10-16T14:18:32;1.47;;;0.57;;
5880;SDS011;2966;52.598;10.928;2022-10-16T14:21:04;2.63;;;1.00;;
5880;SDS011;2966;52.598;10.928;2022-10-16T14:23:33;0.60;;;0.60;;
5880;SDS011;2966;52.598;10.928;2022-10-16T14:26:06;3.97;;;0.93;;
5880;SDS011;2966;52.598;10.928;2022-10-16T14:28:39;1.80;;;0.70;;
5880;SDS011;2966;52.598;10.928;2022-10-16T14:31:22;1.07;;;0.60;;
5880;SDS011;2966;52.598;10.928;2022-10-16T14:33:52;0.93;;;0.70;;
5880;SDS011;2966;52.598;10.928;2022-10-16T14:36:20;3.90;;;1.00;;
5880;SDS011;2966;52.598;10.928;2022-10-16T14:38:48;0.50;;;0.50;;
5880;SDS011;2966;52.598;10.928;2022-10-16T14:41:20;1.23;;;0.83;;
5880;SDS011;2966;52.598;10.928;2022-10-16T14:43:49;0.70;;;0.60;;
5880;SDS011;2966;52.598;10.928;2022-10-16T14:46:19;0.73;;;0.60;;
5880;SDS011;2966;52.598;10.928;2022-10-16T14:48:55;2.63;;;0.60;;
5880;SDS011;2966;52.598;10.928;2022-10-16T14:51:26;1.20;;;0.57;;
5880;SDS011;2966;52.598;10.928;2022-10-16T14:53:53;0.60;;;0.53;;
5880;SDS011;2966;52.598;10.928;2022-10-16T14:56:24;0.80;;;0.60;;
5880;SDS011;2966;52.598;10.928;2022-10-16T14:58:53;4.97;;;0.90;;
5880;SDS011;2966;52.598;10.928;2022-10-16T15:01:22;2.30;;;1.57;;
5880;SDS011;2966;52.598;10.928;2022-10-16T15:03:49;0.50;;;0.40;;
5880;SDS011;2966;52.598;10.928;2022-10-16T15:06:19;3.23;;;1.40;;
5880;SDS011;2966;52.598;10.928;2022-10-16T15:08:45;1.03;;;1.03;;
5880;SDS011;2966;52.598;10.928;2022-10-16T15:11:13;1.90;;;1.07;;
5880;SDS011;2966;52.598;10.928;2022-10-16T15:13:41;0.67;;;0.67;;
5880;SDS011;2966;52.598;10.928;2022-10-16T15:16:10;1.27;;;0.80;;
5880;SDS011;2966;52.598;10.928;2022-10-16T15:18:39;2.03;;;1.00;;
5880;SDS011;2966;52.598;10.928;2022-10-16T15:21:06;1.10;;;0.77;;
5880;SDS011;2966;52.598;10.928;2022-10-16T15:23:33;0.60;;;0.60;;
5880;SDS011;2966;52.598;10.928;2022-10-16T15:26:00;1.57;;;0.87;;
5880;SDS011;2966;52.598;10.928;2022-10-16T15:28:27;1.30;;;0.90;;